Flugplatz Dortmund

Bericht für EDLW

vom 14.11. um 03:20 UTC

Wind 7 kt aus 190°

Sichtweite 10 km oder mehr

keine Wolken

Temperatur 7.0°C

Taupunkt 6.0°C

Luftfeuchtigkeit 93%

Luftdruck 1028 hPa

EDLW 140320Z AUTO 19007KT 9999 NCD 07/06 Q1028

Prognose für EDLW

vom 13.11. um 17:00 UTC

Am 13.11. zwischen 18:00 UTC und 00:00 UTC

Wind 12 kt aus 220°

Sichtweite 10 km oder mehr

gering bewölkt in 3500 ft


Zwischen 00:00 und 03:00 UTC übergehend zu

Wind 7 kt aus 190°

Sichtweite 10 km oder mehr

gering bewölkt in 3500 ft

TAF EDLW 131700Z 1318/1418 22012KT 9999 FEW035 BECMG 1400/1403 19007KT
Impressum